sensor_id;sensor_type;location;lat;lon;timestamp;temperature;humidity
53880;DHT22;39791;53.184;5.486;2022-12-29T00:01:22;13.00;99.90
53880;DHT22;39791;53.184;5.486;2022-12-29T00:03:47;13.10;99.90
53880;DHT22;39791;53.184;5.486;2022-12-29T00:06:13;13.20;99.90
53880;DHT22;39791;53.184;5.486;2022-12-29T00:08:39;12.80;99.90
53880;DHT22;39791;53.184;5.486;2022-12-29T00:11:06;12.80;99.90
53880;DHT22;39791;53.184;5.486;2022-12-29T00:13:32;13.20;99.90
53880;DHT22;39791;53.184;5.486;2022-12-29T00:16:17;13.20;99.90
53880;DHT22;39791;53.184;5.486;2022-12-29T00:18:42;13.20;99.90
53880;DHT22;39791;53.184;5.486;2022-12-29T00:21:13;12.70;99.90
53880;DHT22;39791;53.184;5.486;2022-12-29T00:23:58;12.80;99.90
53880;DHT22;39791;53.184;5.486;2022-12-29T00:26:43;12.90;99.90
53880;DHT22;39791;53.184;5.486;2022-12-29T00:29:27;12.60;99.90
53880;DHT22;39791;53.184;5.486;2022-12-29T00:32:11;13.00;99.90
53880;DHT22;39791;53.184;5.486;2022-12-29T00:34:55;13.00;99.90
53880;DHT22;39791;53.184;5.486;2022-12-29T00:37:34;13.00;99.90
53880;DHT22;39791;53.184;5.486;2022-12-29T00:40:18;12.90;99.90
53880;DHT22;39791;53.184;5.486;2022-12-29T00:43:03;13.00;99.90
53880;DHT22;39791;53.184;5.486;2022-12-29T00:45:47;13.10;99.90
53880;DHT22;39791;53.184;5.486;2022-12-29T00:48:13;13.00;99.90
53880;DHT22;39791;53.184;5.486;2022-12-29T00:50:38;13.00;99.90
53880;DHT22;39791;53.184;5.486;2022-12-29T00:53:04;13.10;99.90
53880;DHT22;39791;53.184;5.486;2022-12-29T00:55:29;13.20;99.90
53880;DHT22;39791;53.184;5.486;2022-12-29T00:57:55;13.10;99.90
53880;DHT22;39791;53.184;5.486;2022-12-29T01:00:20;13.10;99.90
53880;DHT22;39791;53.184;5.486;2022-12-29T01:02:46;13.00;99.90
53880;DHT22;39791;53.184;5.486;2022-12-29T01:05:11;13.20;99.90
53880;DHT22;39791;53.184;5.486;2022-12-29T01:07:37;13.20;99.90
53880;DHT22;39791;53.184;5.486;2022-12-29T01:10:02;13.30;99.90
53880;DHT22;39791;53.184;5.486;2022-12-29T01:12:37;13.00;99.90
53880;DHT22;39791;53.184;5.486;2022-12-29T01:15:07;13.00;99.90
53880;DHT22;39791;53.184;5.486;2022-12-29T01:17:33;13.40;99.90
53880;DHT22;39791;53.184;5.486;2022-12-29T01:19:58;13.00;99.90
53880;DHT22;39791;53.184;5.486;2022-12-29T01:22:24;13.30;99.90
53880;DHT22;39791;53.184;5.486;2022-12-29T01:24:49;12.90;99.90
53880;DHT22;39791;53.184;5.486;2022-12-29T01:27:15;13.00;99.90
53880;DHT22;39791;53.184;5.486;2022-12-29T01:29:41;13.10;99.90
53880;DHT22;39791;53.184;5.486;2022-12-29T01:32:06;13.20;99.90
53880;DHT22;39791;53.184;5.486;2022-12-29T01:34:32;13.10;99.90
53880;DHT22;39791;53.184;5.486;2022-12-29T01:36:57;12.00;99.90
53880;DHT22;39791;53.184;5.486;2022-12-29T01:39:23;13.00;99.90
53880;DHT22;39791;53.184;5.486;2022-12-29T01:41:49;13.30;99.90
53880;DHT22;39791;53.184;5.486;2022-12-29T01:47:33;13.00;99.90
53880;DHT22;39791;53.184;5.486;2022-12-29T01:50:15;13.10;99.90
53880;DHT22;39791;53.184;5.486;2022-12-29T01:52:56;12.90;99.90
53880;DHT22;39791;53.184;5.486;2022-12-29T01:55:23;12.80;99.90
53880;DHT22;39791;53.184;5.486;2022-12-29T01:57:51;12.70;99.90
53880;DHT22;39791;53.184;5.486;2022-12-29T02:00:18;12.70;99.90
53880;DHT22;39791;53.184;5.486;2022-12-29T02:02:54;12.60;99.90
53880;DHT22;39791;53.184;5.486;2022-12-29T02:05:53;13.10;99.90
53880;DHT22;39791;53.184;5.486;2022-12-29T02:08:22;12.70;99.90
53880;DHT22;39791;53.184;5.486;2022-12-29T02:10:50;12.70;99.90
53880;DHT22;39791;53.184;5.486;2022-12-29T02:13:16;12.70;99.90
53880;DHT22;39791;53.184;5.486;2022-12-29T02:21:16;12.40;99.90
53880;DHT22;39791;53.184;5.486;2022-12-29T02:24:05;12.40;99.90
53880;DHT22;39791;53.184;5.486;2022-12-29T02:32:07;12.40;99.90
53880;DHT22;39791;53.184;5.486;2022-12-29T02:39:57;12.70;99.90
53880;DHT22;39791;53.184;5.486;2022-12-29T02:42:34;12.70;99.90
53880;DHT22;39791;53.184;5.486;2022-12-29T02:45:05;12.80;99.90
53880;DHT22;39791;53.184;5.486;2022-12-29T02:47:48;12.40;99.90
53880;DHT22;39791;53.184;5.486;2022-12-29T02:50:36;12.50;99.90
53880;DHT22;39791;53.184;5.486;2022-12-29T02:53:05;12.70;99.90
53880;DHT22;39791;53.184;5.486;2022-12-29T02:55:31;12.60;99.90
53880;DHT22;39791;53.184;5.486;2022-12-29T02:58:19;12.90;99.90
53880;DHT22;39791;53.184;5.486;2022-12-29T03:01:16;12.90;99.90
53880;DHT22;39791;53.184;5.486;2022-12-29T03:04:19;12.50;99.90
53880;DHT22;39791;53.184;5.486;2022-12-29T03:09:43;12.50;99.90
53880;DHT22;39791;53.184;5.486;2022-12-29T03:12:36;12.90;99.90
53880;DHT22;39791;53.184;5.486;2022-12-29T03:15:39;12.50;99.90
53880;DHT22;39791;53.184;5.486;2022-12-29T03:18:38;13.20;99.90
53880;DHT22;39791;53.184;5.486;2022-12-29T03:21:21;12.50;99.90
53880;DHT22;39791;53.184;5.486;2022-12-29T03:24:10;12.40;99.90
53880;DHT22;39791;53.184;5.486;2022-12-29T03:26:37;12.10;99.90
53880;DHT22;39791;53.184;5.486;2022-12-29T03:29:03;12.30;99.90
53880;DHT22;39791;53.184;5.486;2022-12-29T03:31:31;12.20;99.90
53880;DHT22;39791;53.184;5.486;2022-12-29T03:33:56;12.20;99.90
53880;DHT22;39791;53.184;5.486;2022-12-29T03:36:29;12.10;99.90
53880;DHT22;39791;53.184;5.486;2022-12-29T03:39:16;12.40;99.90
53880;DHT22;39791;53.184;5.486;2022-12-29T03:41:43;12.50;99.90
53880;DHT22;39791;53.184;5.486;2022-12-29T03:44:11;12.30;99.90
53880;DHT22;39791;53.184;5.486;2022-12-29T03:46:37;12.40;99.90
53880;DHT22;39791;53.184;5.486;2022-12-29T03:49:03;12.40;99.90
53880;DHT22;39791;53.184;5.486;2022-12-29T03:51:29;12.20;99.90
53880;DHT22;39791;53.184;5.486;2022-12-29T03:53:55;12.20;99.90
53880;DHT22;39791;53.184;5.486;2022-12-29T03:56:21;12.00;99.90
53880;DHT22;39791;53.184;5.486;2022-12-29T03:58:46;12.50;99.90
53880;DHT22;39791;53.184;5.486;2022-12-29T04:01:12;12.10;99.90
53880;DHT22;39791;53.184;5.486;2022-12-29T04:03:38;11.80;99.90
53880;DHT22;39791;53.184;5.486;2022-12-29T04:06:04;12.00;99.90
53880;DHT22;39791;53.184;5.486;2022-12-29T04:08:29;12.20;99.90
53880;DHT22;39791;53.184;5.486;2022-12-29T04:10:55;12.10;99.90
53880;DHT22;39791;53.184;5.486;2022-12-29T04:13:21;12.30;99.90
53880;DHT22;39791;53.184;5.486;2022-12-29T04:15:46;12.10;99.90
53880;DHT22;39791;53.184;5.486;2022-12-29T04:18:12;12.10;99.90
53880;DHT22;39791;53.184;5.486;2022-12-29T04:20:38;11.90;99.90
53880;DHT22;39791;53.184;5.486;2022-12-29T04:23:23;12.10;99.90
53880;DHT22;39791;53.184;5.486;2022-12-29T04:25:48;11.90;99.90
53880;DHT22;39791;53.184;5.486;2022-12-29T04:28:15;11.80;99.90
53880;DHT22;39791;53.184;5.486;2022-12-29T04:30:41;11.90;99.90
53880;DHT22;39791;53.184;5.486;2022-12-29T04:33:07;11.60;99.90
53880;DHT22;39791;53.184;5.486;2022-12-29T04:35:33;11.80;99.90
53880;DHT22;39791;53.184;5.486;2022-12-29T04:37:58;11.80;99.90
53880;DHT22;39791;53.184;5.486;2022-12-29T04:40:24;11.80;99.90
53880;DHT22;39791;53.184;5.486;2022-12-29T04:42:50;11.80;99.90
53880;DHT22;39791;53.184;5.486;2022-12-29T04:45:16;11.80;99.90
53880;DHT22;39791;53.184;5.486;2022-12-29T04:47:42;11.90;99.90
53880;DHT22;39791;53.184;5.486;2022-12-29T04:50:08;12.30;99.90
53880;DHT22;39791;53.184;5.486;2022-12-29T04:52:33;12.00;99.90
53880;DHT22;39791;53.184;5.486;2022-12-29T04:54:59;12.00;99.90
53880;DHT22;39791;53.184;5.486;2022-12-29T04:57:25;12.10;99.90
53880;DHT22;39791;53.184;5.486;2022-12-29T04:59:50;12.00;99.90
53880;DHT22;39791;53.184;5.486;2022-12-29T05:02:16;11.90;99.90
53880;DHT22;39791;53.184;5.486;2022-12-29T05:04:42;12.20;99.90
53880;DHT22;39791;53.184;5.486;2022-12-29T05:07:09;12.20;99.90
53880;DHT22;39791;53.184;5.486;2022-12-29T05:09:34;12.30;99.90
53880;DHT22;39791;53.184;5.486;2022-12-29T05:12:00;12.10;99.90
53880;DHT22;39791;53.184;5.486;2022-12-29T05:14:26;11.80;99.90
53880;DHT22;39791;53.184;5.486;2022-12-29T05:16:51;11.90;99.90
53880;DHT22;39791;53.184;5.486;2022-12-29T05:19:17;12.40;99.90
53880;DHT22;39791;53.184;5.486;2022-12-29T05:21:43;12.10;99.90
53880;DHT22;39791;53.184;5.486;2022-12-29T05:24:09;12.20;99.90
53880;DHT22;39791;53.184;5.486;2022-12-29T05:26:34;12.10;1.00
53880;DHT22;39791;53.184;5.486;2022-12-29T05:29:00;11.90;1.00
53880;DHT22;39791;53.184;5.486;2022-12-29T05:31:26;11.80;99.90
53880;DHT22;39791;53.184;5.486;2022-12-29T05:33:52;12.20;1.00
53880;DHT22;39791;53.184;5.486;2022-12-29T05:36:18;12.40;99.90
53880;DHT22;39791;53.184;5.486;2022-12-29T05:38:43;12.60;99.90
53880;DHT22;39791;53.184;5.486;2022-12-29T05:41:09;13.00;99.90
53880;DHT22;39791;53.184;5.486;2022-12-29T05:43:35;12.10;1.00
53880;DHT22;39791;53.184;5.486;2022-12-29T05:46:01;12.30;99.90
53880;DHT22;39791;53.184;5.486;2022-12-29T05:48:27;12.00;99.60
53880;DHT22;39791;53.184;5.486;2022-12-29T05:50:52;12.10;1.00
53880;DHT22;39791;53.184;5.486;2022-12-29T05:53:18;12.00;99.90
53880;DHT22;39791;53.184;5.486;2022-12-29T05:55:46;12.00;99.90
53880;DHT22;39791;53.184;5.486;2022-12-29T05:58:11;12.40;99.90
53880;DHT22;39791;53.184;5.486;2022-12-29T06:00:37;12.10;1.00
53880;DHT22;39791;53.184;5.486;2022-12-29T06:03:03;11.70;99.90
53880;DHT22;39791;53.184;5.486;2022-12-29T06:05:29;11.70;97.60
53880;DHT22;39791;53.184;5.486;2022-12-29T06:07:54;11.40;1.00
53880;DHT22;39791;53.184;5.486;2022-12-29T06:10:20;11.60;1.00
53880;DHT22;39791;53.184;5.486;2022-12-29T06:12:46;11.70;1.00
53880;DHT22;39791;53.184;5.486;2022-12-29T06:15:12;11.60;1.00
53880;DHT22;39791;53.184;5.486;2022-12-29T06:17:38;11.50;99.90
53880;DHT22;39791;53.184;5.486;2022-12-29T06:20:04;11.40;99.90
53880;DHT22;39791;53.184;5.486;2022-12-29T06:22:30;11.40;99.90
53880;DHT22;39791;53.184;5.486;2022-12-29T06:24:56;11.50;1.00
53880;DHT22;39791;53.184;5.486;2022-12-29T06:27:21;11.70;1.00
53880;DHT22;39791;53.184;5.486;2022-12-29T06:29:47;11.90;1.00
53880;DHT22;39791;53.184;5.486;2022-12-29T06:32:13;11.80;1.00
53880;DHT22;39791;53.184;5.486;2022-12-29T06:34:38;12.00;1.00
53880;DHT22;39791;53.184;5.486;2022-12-29T06:37:04;12.50;18.40
53880;DHT22;39791;53.184;5.486;2022-12-29T06:39:29;12.00;1.00
53880;DHT22;39791;53.184;5.486;2022-12-29T06:41:55;12.00;1.00
53880;DHT22;39791;53.184;5.486;2022-12-29T06:44:21;11.70;1.00
53880;DHT22;39791;53.184;5.486;2022-12-29T06:46:47;11.70;1.00
53880;DHT22;39791;53.184;5.486;2022-12-29T06:49:13;11.80;1.00
53880;DHT22;39791;53.184;5.486;2022-12-29T06:51:39;11.80;1.00
53880;DHT22;39791;53.184;5.486;2022-12-29T06:54:05;11.60;1.00
53880;DHT22;39791;53.184;5.486;2022-12-29T06:56:31;11.70;1.00
53880;DHT22;39791;53.184;5.486;2022-12-29T06:58:56;11.80;99.90
53880;DHT22;39791;53.184;5.486;2022-12-29T07:01:22;11.50;99.90
53880;DHT22;39791;53.184;5.486;2022-12-29T07:03:48;11.70;99.90
53880;DHT22;39791;53.184;5.486;2022-12-29T07:06:14;11.60;99.90
53880;DHT22;39791;53.184;5.486;2022-12-29T07:08:39;11.60;99.90
53880;DHT22;39791;53.184;5.486;2022-12-29T07:11:05;11.40;99.90
53880;DHT22;39791;53.184;5.486;2022-12-29T07:13:31;11.40;99.90
53880;DHT22;39791;53.184;5.486;2022-12-29T07:15:56;11.60;99.90
53880;DHT22;39791;53.184;5.486;2022-12-29T07:18:22;11.40;45.60
53880;DHT22;39791;53.184;5.486;2022-12-29T07:20:47;11.40;1.00
53880;DHT22;39791;53.184;5.486;2022-12-29T07:23:13;11.50;1.00
53880;DHT22;39791;53.184;5.486;2022-12-29T07:25:39;12.20;1.00
53880;DHT22;39791;53.184;5.486;2022-12-29T07:28:06;11.40;99.90
53880;DHT22;39791;53.184;5.486;2022-12-29T07:30:32;11.20;99.90
53880;DHT22;39791;53.184;5.486;2022-12-29T07:32:58;11.40;99.90
53880;DHT22;39791;53.184;5.486;2022-12-29T07:35:23;11.20;1.00
53880;DHT22;39791;53.184;5.486;2022-12-29T07:37:49;11.40;1.00
53880;DHT22;39791;53.184;5.486;2022-12-29T07:40:15;11.30;99.90
53880;DHT22;39791;53.184;5.486;2022-12-29T07:42:41;11.40;99.90
53880;DHT22;39791;53.184;5.486;2022-12-29T07:45:07;11.50;99.90
53880;DHT22;39791;53.184;5.486;2022-12-29T07:47:34;11.60;99.90
53880;DHT22;39791;53.184;5.486;2022-12-29T07:50:00;11.80;99.90
53880;DHT22;39791;53.184;5.486;2022-12-29T07:52:25;11.40;99.90
53880;DHT22;39791;53.184;5.486;2022-12-29T07:54:51;11.40;1.00
53880;DHT22;39791;53.184;5.486;2022-12-29T07:57:17;11.40;99.90
53880;DHT22;39791;53.184;5.486;2022-12-29T07:59:42;11.50;1.00
53880;DHT22;39791;53.184;5.486;2022-12-29T08:02:12;11.70;99.90
53880;DHT22;39791;53.184;5.486;2022-12-29T08:04:37;11.60;99.90
53880;DHT22;39791;53.184;5.486;2022-12-29T08:07:03;11.70;99.90
53880;DHT22;39791;53.184;5.486;2022-12-29T08:09:28;11.80;99.90
53880;DHT22;39791;53.184;5.486;2022-12-29T08:11:54;11.90;99.90
53880;DHT22;39791;53.184;5.486;2022-12-29T08:14:20;11.70;99.90
53880;DHT22;39791;53.184;5.486;2022-12-29T08:16:46;11.70;1.00
53880;DHT22;39791;53.184;5.486;2022-12-29T08:19:12;11.60;1.00
53880;DHT22;39791;53.184;5.486;2022-12-29T08:21:37;11.60;1.00
53880;DHT22;39791;53.184;5.486;2022-12-29T08:24:03;11.60;75.80
53880;DHT22;39791;53.184;5.486;2022-12-29T08:26:29;11.40;99.90
53880;DHT22;39791;53.184;5.486;2022-12-29T08:28:55;11.30;99.90
53880;DHT22;39791;53.184;5.486;2022-12-29T08:31:22;11.20;99.90
53880;DHT22;39791;53.184;5.486;2022-12-29T08:33:48;11.40;99.90
53880;DHT22;39791;53.184;5.486;2022-12-29T08:36:13;11.30;99.90
53880;DHT22;39791;53.184;5.486;2022-12-29T08:38:39;11.00;99.90
53880;DHT22;39791;53.184;5.486;2022-12-29T08:41:05;10.70;1.00
53880;DHT22;39791;53.184;5.486;2022-12-29T08:43:30;10.70;1.00
53880;DHT22;39791;53.184;5.486;2022-12-29T08:45:57;10.70;99.90
53880;DHT22;39791;53.184;5.486;2022-12-29T08:48:24;11.20;1.00
53880;DHT22;39791;53.184;5.486;2022-12-29T08:50:50;11.30;40.80
53880;DHT22;39791;53.184;5.486;2022-12-29T08:53:16;11.10;99.90
53880;DHT22;39791;53.184;5.486;2022-12-29T08:55:45;11.40;99.90
53880;DHT22;39791;53.184;5.486;2022-12-29T08:58:11;11.10;99.90
53880;DHT22;39791;53.184;5.486;2022-12-29T09:00:40;11.40;99.90
53880;DHT22;39791;53.184;5.486;2022-12-29T09:03:06;11.60;99.90
53880;DHT22;39791;53.184;5.486;2022-12-29T09:05:32;11.70;99.90
53880;DHT22;39791;53.184;5.486;2022-12-29T09:07:57;11.80;99.90
53880;DHT22;39791;53.184;5.486;2022-12-29T09:10:23;11.80;99.90
53880;DHT22;39791;53.184;5.486;2022-12-29T09:12:48;11.60;99.90
53880;DHT22;39791;53.184;5.486;2022-12-29T09:15:14;11.40;99.90
53880;DHT22;39791;53.184;5.486;2022-12-29T09:17:42;11.30;99.90
53880;DHT22;39791;53.184;5.486;2022-12-29T09:20:16;11.10;99.90
53880;DHT22;39791;53.184;5.486;2022-12-29T09:22:42;11.30;99.90
53880;DHT22;39791;53.184;5.486;2022-12-29T09:25:09;11.50;99.90
53880;DHT22;39791;53.184;5.486;2022-12-29T09:27:35;11.00;99.90
53880;DHT22;39791;53.184;5.486;2022-12-29T09:30:02;10.90;99.90
53880;DHT22;39791;53.184;5.486;2022-12-29T09:32:28;11.10;99.90
53880;DHT22;39791;53.184;5.486;2022-12-29T09:34:53;11.50;99.90
53880;DHT22;39791;53.184;5.486;2022-12-29T09:37:19;11.20;99.90
53880;DHT22;39791;53.184;5.486;2022-12-29T09:39:45;12.10;99.90
53880;DHT22;39791;53.184;5.486;2022-12-29T09:42:22;11.50;99.90
53880;DHT22;39791;53.184;5.486;2022-12-29T09:47:20;11.70;99.90
53880;DHT22;39791;53.184;5.486;2022-12-29T09:49:58;11.90;99.90
53880;DHT22;39791;53.184;5.486;2022-12-29T09:52:31;11.90;99.90
53880;DHT22;39791;53.184;5.486;2022-12-29T09:55:00;11.40;99.90
53880;DHT22;39791;53.184;5.486;2022-12-29T09:57:33;11.40;99.90
53880;DHT22;39791;53.184;5.486;2022-12-29T10:00:03;11.40;99.90
53880;DHT22;39791;53.184;5.486;2022-12-29T10:02:42;11.10;99.90
53880;DHT22;39791;53.184;5.486;2022-12-29T10:08:15;10.70;99.90
53880;DHT22;39791;53.184;5.486;2022-12-29T10:10:57;11.00;99.90
53880;DHT22;39791;53.184;5.486;2022-12-29T10:13:39;10.60;99.90
53880;DHT22;39791;53.184;5.486;2022-12-29T10:16:32;10.80;99.90
53880;DHT22;39791;53.184;5.486;2022-12-29T10:24:38;10.30;99.90
53880;DHT22;39791;53.184;5.486;2022-12-29T10:27:08;10.40;99.90
53880;DHT22;39791;53.184;5.486;2022-12-29T10:29:40;10.50;99.90
53880;DHT22;39791;53.184;5.486;2022-12-29T10:32:22;10.40;99.90
53880;DHT22;39791;53.184;5.486;2022-12-29T10:34:57;10.40;99.90
53880;DHT22;39791;53.184;5.486;2022-12-29T10:40:18;10.50;99.90
53880;DHT22;39791;53.184;5.486;2022-12-29T10:42:50;10.30;99.90
53880;DHT22;39791;53.184;5.486;2022-12-29T10:45:18;10.40;99.90
53880;DHT22;39791;53.184;5.486;2022-12-29T10:48:03;10.70;99.90
53880;DHT22;39791;53.184;5.486;2022-12-29T10:50:29;11.30;99.90
53880;DHT22;39791;53.184;5.486;2022-12-29T10:53:02;10.90;99.90
53880;DHT22;39791;53.184;5.486;2022-12-29T10:55:32;10.80;1.00
53880;DHT22;39791;53.184;5.486;2022-12-29T10:58:02;10.80;1.00
53880;DHT22;39791;53.184;5.486;2022-12-29T11:00:30;10.90;99.90
53880;DHT22;39791;53.184;5.486;2022-12-29T11:03:45;11.00;1.00
53880;DHT22;39791;53.184;5.486;2022-12-29T11:06:26;11.00;99.90
53880;DHT22;39791;53.184;5.486;2022-12-29T11:09:07;10.90;99.90
53880;DHT22;39791;53.184;5.486;2022-12-29T11:11:36;11.10;25.70
53880;DHT22;39791;53.184;5.486;2022-12-29T11:14:12;11.20;99.90
53880;DHT22;39791;53.184;5.486;2022-12-29T11:16:39;11.10;99.90
53880;DHT22;39791;53.184;5.486;2022-12-29T11:19:23;11.20;1.00
53880;DHT22;39791;53.184;5.486;2022-12-29T11:21:49;11.40;99.90
53880;DHT22;39791;53.184;5.486;2022-12-29T11:24:24;11.40;1.00
53880;DHT22;39791;53.184;5.486;2022-12-29T11:26:53;11.30;99.90
53880;DHT22;39791;53.184;5.486;2022-12-29T11:29:37;11.40;1.00
53880;DHT22;39791;53.184;5.486;2022-12-29T11:32:18;11.50;99.90
53880;DHT22;39791;53.184;5.486;2022-12-29T11:34:44;11.50;99.90
53880;DHT22;39791;53.184;5.486;2022-12-29T11:37:27;11.70;36.90
53880;DHT22;39791;53.184;5.486;2022-12-29T11:40:05;11.80;1.00
53880;DHT22;39791;53.184;5.486;2022-12-29T11:42:42;11.70;99.90
53880;DHT22;39791;53.184;5.486;2022-12-29T11:45:24;11.80;99.90
53880;DHT22;39791;53.184;5.486;2022-12-29T11:47:54;11.90;99.90
53880;DHT22;39791;53.184;5.486;2022-12-29T11:50:29;11.90;63.20
53880;DHT22;39791;53.184;5.486;2022-12-29T11:53:04;12.00;1.00
53880;DHT22;39791;53.184;5.486;2022-12-29T11:55:31;12.00;1.00
53880;DHT22;39791;53.184;5.486;2022-12-29T11:57:59;11.90;99.90
53880;DHT22;39791;53.184;5.486;2022-12-29T12:00:27;11.80;99.90
53880;DHT22;39791;53.184;5.486;2022-12-29T12:03:10;11.60;99.90
53880;DHT22;39791;53.184;5.486;2022-12-29T12:05:41;11.60;1.00
53880;DHT22;39791;53.184;5.486;2022-12-29T12:08:39;11.40;1.00
53880;DHT22;39791;53.184;5.486;2022-12-29T12:11:30;11.40;1.00
53880;DHT22;39791;53.184;5.486;2022-12-29T12:14:27;11.50;1.00
53880;DHT22;39791;53.184;5.486;2022-12-29T12:17:18;11.70;1.00
53880;DHT22;39791;53.184;5.486;2022-12-29T12:20:12;11.90;1.00
53880;DHT22;39791;53.184;5.486;2022-12-29T12:22:46;12.00;1.00
53880;DHT22;39791;53.184;5.486;2022-12-29T12:25:24;12.80;1.00
53880;DHT22;39791;53.184;5.486;2022-12-29T12:28:07;11.80;99.90
53880;DHT22;39791;53.184;5.486;2022-12-29T12:30:49;11.60;99.90
53880;DHT22;39791;53.184;5.486;2022-12-29T12:33:31;11.90;99.90
53880;DHT22;39791;53.184;5.486;2022-12-29T12:39:02;11.20;99.90
53880;DHT22;39791;53.184;5.486;2022-12-29T12:42:01;11.00;99.90
53880;DHT22;39791;53.184;5.486;2022-12-29T12:57:54;11.60;99.90
53880;DHT22;39791;53.184;5.486;2022-12-29T13:00:22;11.40;99.90
53880;DHT22;39791;53.184;5.486;2022-12-29T13:05:42;11.00;99.90
53880;DHT22;39791;53.184;5.486;2022-12-29T13:08:28;11.20;99.90
53880;DHT22;39791;53.184;5.486;2022-12-29T13:11:25;11.50;99.90
53880;DHT22;39791;53.184;5.486;2022-12-29T13:19:21;11.20;99.90
53880;DHT22;39791;53.184;5.486;2022-12-29T13:30:43;11.20;99.90
53880;DHT22;39791;53.184;5.486;2022-12-29T13:33:40;11.20;1.00
53880;DHT22;39791;53.184;5.486;2022-12-29T13:36:34;11.40;1.00
53880;DHT22;39791;53.184;5.486;2022-12-29T13:39:15;11.30;1.00
53880;DHT22;39791;53.184;5.486;2022-12-29T13:41:52;11.10;99.90
53880;DHT22;39791;53.184;5.486;2022-12-29T13:47:42;10.80;99.90
53880;DHT22;39791;53.184;5.486;2022-12-29T13:50:17;11.00;1.00
53880;DHT22;39791;53.184;5.486;2022-12-29T13:53:17;11.00;1.00
53880;DHT22;39791;53.184;5.486;2022-12-29T13:58:44;10.80;99.90
53880;DHT22;39791;53.184;5.486;2022-12-29T14:01:15;10.60;99.90
53880;DHT22;39791;53.184;5.486;2022-12-29T14:03:52;10.60;99.90
53880;DHT22;39791;53.184;5.486;2022-12-29T14:08:52;10.50;1.00
53880;DHT22;39791;53.184;5.486;2022-12-29T14:11:21;10.70;51.20
53880;DHT22;39791;53.184;5.486;2022-12-29T14:13:47;10.80;99.90
53880;DHT22;39791;53.184;5.486;2022-12-29T14:16:33;10.80;99.90
53880;DHT22;39791;53.184;5.486;2022-12-29T14:19:11;10.50;99.90
53880;DHT22;39791;53.184;5.486;2022-12-29T14:21:39;10.30;99.90
53880;DHT22;39791;53.184;5.486;2022-12-29T14:29:43;10.50;23.70
53880;DHT22;39791;53.184;5.486;2022-12-29T14:34:57;10.60;99.90
53880;DHT22;39791;53.184;5.486;2022-12-29T14:37:36;10.60;99.90
53880;DHT22;39791;53.184;5.486;2022-12-29T14:42:30;10.30;28.60
53880;DHT22;39791;53.184;5.486;2022-12-29T14:47:47;10.10;99.90
53880;DHT22;39791;53.184;5.486;2022-12-29T14:50:22;10.40;1.00
53880;DHT22;39791;53.184;5.486;2022-12-29T14:52:59;10.40;77.10
53880;DHT22;39791;53.184;5.486;2022-12-29T14:55:39;10.40;99.90
53880;DHT22;39791;53.184;5.486;2022-12-29T14:58:12;10.40;99.90
53880;DHT22;39791;53.184;5.486;2022-12-29T15:00:40;10.40;99.90
53880;DHT22;39791;53.184;5.486;2022-12-29T15:03:12;10.20;99.90
53880;DHT22;39791;53.184;5.486;2022-12-29T15:05:56;10.70;99.90
53880;DHT22;39791;53.184;5.486;2022-12-29T15:08:29;10.20;99.90
53880;DHT22;39791;53.184;5.486;2022-12-29T15:11:01;10.20;1.00
53880;DHT22;39791;53.184;5.486;2022-12-29T15:13:39;10.60;82.20
53880;DHT22;39791;53.184;5.486;2022-12-29T15:16:39;10.60;99.90
53880;DHT22;39791;53.184;5.486;2022-12-29T15:19:24;10.50;99.90
53880;DHT22;39791;53.184;5.486;2022-12-29T15:21:50;10.60;99.90
53880;DHT22;39791;53.184;5.486;2022-12-29T15:24:16;10.60;12.70
53880;DHT22;39791;53.184;5.486;2022-12-29T15:26:50;10.50;59.60
53880;DHT22;39791;53.184;5.486;2022-12-29T15:29:39;10.30;99.90
53880;DHT22;39791;53.184;5.486;2022-12-29T15:32:25;10.30;99.90
53880;DHT22;39791;53.184;5.486;2022-12-29T15:34:53;10.20;15.80
53880;DHT22;39791;53.184;5.486;2022-12-29T15:37:26;10.40;99.90
53880;DHT22;39791;53.184;5.486;2022-12-29T15:39:55;10.60;1.00
53880;DHT22;39791;53.184;5.486;2022-12-29T15:42:46;10.70;1.00
53880;DHT22;39791;53.184;5.486;2022-12-29T15:45:14;10.30;1.00
53880;DHT22;39791;53.184;5.486;2022-12-29T15:47:42;10.30;99.90
53880;DHT22;39791;53.184;5.486;2022-12-29T15:50:22;10.00;99.90
53880;DHT22;39791;53.184;5.486;2022-12-29T15:52:49;9.80;99.90
53880;DHT22;39791;53.184;5.486;2022-12-29T15:55:21;9.80;99.90
53880;DHT22;39791;53.184;5.486;2022-12-29T15:57:50;9.80;99.90
53880;DHT22;39791;53.184;5.486;2022-12-29T16:00:23;10.00;22.20
53880;DHT22;39791;53.184;5.486;2022-12-29T16:02:51;10.30;99.90
53880;DHT22;39791;53.184;5.486;2022-12-29T16:05:17;10.20;1.00
53880;DHT22;39791;53.184;5.486;2022-12-29T16:07:58;10.20;99.90
53880;DHT22;39791;53.184;5.486;2022-12-29T16:12:54;9.90;99.90
53880;DHT22;39791;53.184;5.486;2022-12-29T16:15:20;9.80;99.90
53880;DHT22;39791;53.184;5.486;2022-12-29T16:17:48;10.00;2.40
53880;DHT22;39791;53.184;5.486;2022-12-29T16:20:19;10.10;31.40
53880;DHT22;39791;53.184;5.486;2022-12-29T16:22:51;10.30;1.00
53880;DHT22;39791;53.184;5.486;2022-12-29T16:25:28;10.10;99.90
53880;DHT22;39791;53.184;5.486;2022-12-29T16:27:57;10.00;99.90
53880;DHT22;39791;53.184;5.486;2022-12-29T16:30:25;10.10;99.90
53880;DHT22;39791;53.184;5.486;2022-12-29T16:32:54;9.90;99.90
53880;DHT22;39791;53.184;5.486;2022-12-29T16:40:53;10.50;1.00
53880;DHT22;39791;53.184;5.486;2022-12-29T16:43:25;10.30;1.00
53880;DHT22;39791;53.184;5.486;2022-12-29T16:48:21;10.30;1.00
53880;DHT22;39791;53.184;5.486;2022-12-29T16:50:49;10.10;99.90
53880;DHT22;39791;53.184;5.486;2022-12-29T16:53:27;9.90;99.90
53880;DHT22;39791;53.184;5.486;2022-12-29T16:55:54;10.20;1.00
53880;DHT22;39791;53.184;5.486;2022-12-29T16:58:23;10.20;99.90
53880;DHT22;39791;53.184;5.486;2022-12-29T17:00:53;10.30;99.90
53880;DHT22;39791;53.184;5.486;2022-12-29T17:03:19;10.50;99.90
53880;DHT22;39791;53.184;5.486;2022-12-29T17:05:45;10.20;1.00
53880;DHT22;39791;53.184;5.486;2022-12-29T17:08:18;10.10;1.00
53880;DHT22;39791;53.184;5.486;2022-12-29T17:10:51;10.00;99.90
53880;DHT22;39791;53.184;5.486;2022-12-29T17:13:37;10.00;99.90
53880;DHT22;39791;53.184;5.486;2022-12-29T17:16:04;10.30;1.00
53880;DHT22;39791;53.184;5.486;2022-12-29T17:18:32;10.20;1.00
53880;DHT22;39791;53.184;5.486;2022-12-29T17:20:57;10.50;99.90
53880;DHT22;39791;53.184;5.486;2022-12-29T17:23:23;10.20;99.90
53880;DHT22;39791;53.184;5.486;2022-12-29T17:25:49;10.10;26.30
53880;DHT22;39791;53.184;5.486;2022-12-29T17:28:26;10.00;1.00
53880;DHT22;39791;53.184;5.486;2022-12-29T17:30:53;10.00;99.90
53880;DHT22;39791;53.184;5.486;2022-12-29T17:33:20;9.80;99.90
53880;DHT22;39791;53.184;5.486;2022-12-29T17:35:46;10.00;3.20
53880;DHT22;39791;53.184;5.486;2022-12-29T17:38:18;10.30;99.90
53880;DHT22;39791;53.184;5.486;2022-12-29T17:40:44;10.00;78.50
53880;DHT22;39791;53.184;5.486;2022-12-29T17:43:12;10.20;33.50